createdAt,value
2022-11-04T00:04:20.599Z,11.5
2022-11-04T00:09:20.764Z,11.5
2022-11-04T00:14:20.872Z,11.4
2022-11-04T00:19:20.841Z,11.4
2022-11-04T00:24:20.865Z,11.4
2022-11-04T00:29:20.963Z,11.4
2022-11-04T00:34:20.871Z,11.4
2022-11-04T00:39:20.902Z,11.4
2022-11-04T00:44:20.870Z,11.4
2022-11-04T00:49:20.874Z,11.4
2022-11-04T00:54:20.985Z,11.4
2022-11-04T00:59:20.928Z,11.3
2022-11-04T01:04:21.081Z,11.3
2022-11-04T01:09:21.074Z,11.3
2022-11-04T01:14:21.145Z,11.3
2022-11-04T01:19:21.095Z,11.2
2022-11-04T01:24:21.061Z,11.2
2022-11-04T01:29:21.085Z,11.2
2022-11-04T01:34:21.141Z,11.1
2022-11-04T01:39:21.351Z,11.1
2022-11-04T01:44:21.295Z,11.1
2022-11-04T01:49:21.196Z,11.1
2022-11-04T01:54:21.245Z,11.1
2022-11-04T01:59:21.306Z,11
2022-11-04T02:04:21.324Z,11
2022-11-04T02:09:21.406Z,11
2022-11-04T02:14:21.489Z,11
2022-11-04T02:19:21.625Z,10.9
2022-11-04T02:24:21.650Z,10.9
2022-11-04T02:29:21.606Z,10.9
2022-11-04T02:34:21.594Z,10.9
2022-11-04T02:39:21.721Z,10.9
2022-11-04T02:44:21.646Z,10.9
2022-11-04T02:49:21.968Z,10.9
2022-11-04T02:54:21.763Z,10.8
2022-11-04T02:59:21.770Z,10.8
2022-11-04T03:04:21.834Z,10.8
2022-11-04T03:09:21.889Z,10.8
2022-11-04T03:14:21.908Z,10.8
2022-11-04T03:19:21.947Z,10.8
2022-11-04T03:24:22.075Z,10.8
2022-11-04T03:29:22.291Z,10.8
2022-11-04T03:34:22.297Z,10.8
2022-11-04T03:39:22.659Z,10.8
2022-11-04T03:44:22.307Z,10.8
2022-11-04T03:49:22.305Z,10.7
2022-11-04T03:54:22.377Z,10.7
2022-11-04T03:59:22.458Z,10.8
2022-11-04T04:04:22.521Z,10.7
2022-11-04T04:09:22.536Z,10.7
2022-11-04T04:14:22.572Z,10.7
2022-11-04T04:19:22.545Z,10.7
2022-11-04T04:24:22.522Z,10.7
2022-11-04T04:29:22.520Z,10.7
2022-11-04T04:34:22.528Z,10.7
2022-11-04T04:39:22.922Z,10.7
2022-11-04T04:44:22.557Z,10.7
2022-11-04T04:49:22.579Z,10.7
2022-11-04T04:54:22.672Z,10.7
2022-11-04T04:59:22.684Z,10.7
2022-11-04T05:04:22.667Z,10.7
2022-11-04T05:09:22.809Z,10.7
2022-11-04T05:14:22.786Z,10.7
2022-11-04T05:19:22.831Z,10.7
2022-11-04T05:24:22.838Z,10.7
2022-11-04T05:29:22.908Z,10.7
2022-11-04T05:34:22.895Z,10.7
2022-11-04T05:39:23.250Z,10.7
2022-11-04T05:44:23.060Z,10.7
2022-11-04T05:49:23.165Z,10.8
2022-11-04T05:54:23.207Z,10.8
2022-11-04T05:59:23.229Z,10.8
2022-11-04T06:04:23.268Z,10.8
2022-11-04T06:09:23.264Z,10.8
2022-11-04T06:14:23.400Z,10.8
2022-11-04T06:19:23.754Z,10.8
2022-11-04T06:24:23.470Z,10.8
2022-11-04T06:29:23.630Z,10.8
2022-11-04T06:34:23.663Z,10.8
2022-11-04T06:39:23.963Z,10.8
2022-11-04T06:44:23.684Z,10.8
2022-11-04T06:49:23.804Z,10.8
2022-11-04T06:54:23.723Z,10.8
2022-11-04T06:59:23.862Z,10.9
2022-11-04T07:04:23.732Z,10.9
2022-11-04T07:09:24.036Z,10.9
2022-11-04T07:14:23.830Z,10.9
2022-11-04T07:19:24.199Z,10.9
2022-11-04T07:24:24.212Z,11
2022-11-04T07:29:24.415Z,11
2022-11-04T07:34:24.287Z,11
2022-11-04T07:39:24.674Z,11.1
2022-11-04T07:44:24.639Z,11.1
2022-11-04T07:49:25.052Z,11.1
2022-11-04T07:54:24.642Z,11.1
2022-11-04T07:59:25.202Z,11.2
2022-11-04T08:04:24.633Z,11.2
2022-11-04T08:09:24.751Z,11.3
2022-11-04T08:14:24.703Z,11.3
2022-11-04T08:19:24.705Z,11.3
2022-11-04T08:24:24.766Z,11.3
2022-11-04T08:29:24.849Z,11.4
2022-11-04T08:34:24.766Z,11.4
2022-11-04T08:39:24.719Z,11.4
2022-11-04T08:44:24.863Z,11.4
2022-11-04T08:49:24.995Z,11.5
2022-11-04T08:54:25.427Z,11.5
2022-11-04T08:59:25.496Z,11.6
2022-11-04T09:04:25.485Z,11.6
2022-11-04T09:09:25.244Z,11.6
2022-11-04T09:14:25.470Z,11.6
2022-11-04T09:19:25.362Z,11.6
2022-11-04T09:24:25.406Z,11.7
2022-11-04T09:29:25.716Z,11.7
2022-11-04T09:34:25.598Z,11.7
2022-11-04T09:39:25.341Z,11.8
2022-11-04T09:44:25.491Z,11.8
2022-11-04T09:49:25.243Z,11.8
2022-11-04T09:54:25.234Z,11.8
2022-11-04T09:59:25.332Z,11.8
2022-11-04T10:04:25.214Z,11.9
2022-11-04T10:09:25.491Z,11.9
2022-11-04T10:14:25.237Z,11.9
2022-11-04T10:19:25.597Z,11.9
2022-11-04T10:24:25.455Z,11.9
2022-11-04T10:29:25.222Z,11.9
2022-11-04T10:34:25.466Z,12
2022-11-04T10:39:25.644Z,12
2022-11-04T10:44:25.239Z,12
2022-11-04T10:49:25.221Z,12.1
2022-11-04T10:54:25.234Z,12.1
2022-11-04T10:59:25.233Z,12.1
2022-11-04T11:04:25.619Z,12.1
2022-11-04T11:09:25.206Z,12.1
2022-11-04T11:14:25.211Z,12.1
2022-11-04T11:19:25.317Z,12.2
2022-11-04T11:24:25.219Z,12.2
2022-11-04T11:29:25.564Z,12.3
2022-11-04T11:34:25.260Z,12.3
2022-11-04T11:39:25.237Z,12.3
2022-11-04T11:44:25.460Z,12.3
2022-11-04T11:49:25.505Z,12.3
2022-11-04T11:54:25.694Z,12.3
2022-11-04T12:09:27.637Z,12.4
2022-11-04T12:14:25.480Z,12.4
2022-11-04T12:19:25.776Z,12.4
2022-11-04T12:24:25.481Z,12.4
2022-11-04T12:29:25.813Z,12.4
2022-11-04T12:34:25.958Z,12.4
2022-11-04T12:39:26.434Z,12.4
2022-11-04T12:44:25.916Z,12.4
2022-11-04T12:49:25.654Z,12.4
2022-11-04T12:54:25.888Z,12.4
2022-11-04T12:59:25.717Z,12.4
2022-11-04T13:04:25.954Z,12.4
2022-11-04T13:09:26.172Z,12.4
2022-11-04T13:14:25.899Z,12.4
2022-11-04T13:19:26.084Z,12.5
2022-11-04T13:24:25.919Z,12.5
2022-11-04T13:34:42.161Z,12.5
2022-11-04T13:39:42.213Z,12.5
2022-11-04T13:44:42.060Z,12.5
2022-11-04T13:49:42.074Z,12.5
2022-11-04T13:54:42.168Z,12.6
2022-11-04T13:59:42.267Z,12.6
2022-11-04T14:04:41.994Z,12.6
2022-11-04T14:09:42.000Z,12.6
2022-11-04T14:14:42.161Z,12.6
2022-11-04T14:19:42.021Z,12.6
2022-11-04T14:24:42.011Z,12.6
2022-11-04T14:29:42.003Z,12.6
2022-11-04T14:34:42.828Z,12.6
2022-11-04T14:39:41.996Z,12.6
2022-11-04T14:44:41.989Z,12.6
2022-11-04T14:49:41.993Z,12.6
2022-11-04T14:54:42.017Z,12.6
2022-11-04T14:59:41.990Z,12.6
2022-11-04T15:04:41.985Z,12.6
2022-11-04T15:09:41.990Z,12.6
2022-11-04T15:14:42.011Z,12.6
2022-11-04T15:19:42.129Z,12.6
2022-11-04T15:24:41.976Z,12.6
2022-11-04T15:29:41.980Z,12.6
2022-11-04T15:34:41.992Z,12.6
2022-11-04T15:39:41.965Z,12.6
2022-11-04T15:44:41.961Z,12.6
2022-11-04T15:49:41.989Z,12.6
2022-11-04T15:54:41.992Z,12.5
2022-11-04T15:59:41.982Z,12.5
2022-11-04T16:04:45.330Z,12.5
2022-11-04T16:09:41.978Z,12.5
2022-11-04T16:14:42.095Z,12.4
2022-11-04T16:19:41.968Z,12.4
2022-11-04T16:24:41.969Z,12.4
2022-11-04T16:29:46.847Z,12.4
2022-11-04T16:34:42.018Z,12.4
2022-11-04T16:39:42.070Z,12.4
2022-11-04T16:44:41.969Z,12.4
2022-11-04T16:49:41.968Z,12.4
2022-11-04T16:54:42.001Z,12.3
2022-11-04T16:59:41.969Z,12.3
2022-11-04T17:04:41.952Z,12.3
2022-11-04T17:09:41.972Z,12.3
2022-11-04T17:14:41.994Z,12.3
2022-11-04T17:19:41.962Z,12.3
2022-11-04T17:24:41.951Z,12.3
2022-11-04T17:29:42.018Z,12.3
2022-11-04T17:34:42.034Z,12.2
2022-11-04T17:39:42.072Z,12.2
2022-11-04T17:44:42.024Z,12.2
2022-11-04T17:49:42.052Z,12.2
2022-11-04T17:54:42.060Z,12.2
2022-11-04T17:59:42.035Z,12.1
2022-11-04T18:04:42.055Z,12.1
2022-11-04T18:09:42.042Z,12.1
2022-11-04T18:14:42.051Z,12.1
2022-11-04T18:19:42.039Z,12.1
2022-11-04T18:24:42.068Z,12.1
2022-11-04T18:29:42.040Z,12.1
2022-11-04T18:34:42.058Z,12.1
2022-11-04T18:39:42.046Z,12.1
2022-11-04T18:44:42.039Z,12.1
2022-11-04T18:49:42.092Z,12.1
2022-11-04T18:54:42.117Z,12.1
2022-11-04T18:59:42.064Z,12.1
2022-11-04T19:04:42.046Z,12.1
2022-11-04T19:09:46.957Z,12.1
2022-11-04T19:14:42.072Z,12.1
2022-11-04T19:19:42.074Z,12.1
2022-11-04T19:24:42.045Z,12.1
2022-11-04T19:29:42.084Z,12.1
2022-11-04T19:34:42.074Z,12.1
2022-11-04T19:39:42.067Z,12.1
2022-11-04T19:44:42.204Z,12.1
2022-11-04T19:49:42.052Z,12
2022-11-04T19:54:42.093Z,12
2022-11-04T19:59:42.048Z,12
2022-11-04T20:04:42.055Z,12
2022-11-04T20:09:42.062Z,12
2022-11-04T20:14:42.085Z,12
2022-11-04T20:19:42.064Z,12
2022-11-04T20:24:42.048Z,11.9
2022-11-04T20:29:42.095Z,11.9
2022-11-04T20:34:42.075Z,11.9
2022-11-04T20:39:42.101Z,11.9
2022-11-04T20:44:42.053Z,11.9
2022-11-04T20:49:42.063Z,11.9
2022-11-04T20:54:42.076Z,11.9
2022-11-04T20:59:42.055Z,11.9
2022-11-04T21:04:42.042Z,11.9
2022-11-04T21:09:42.059Z,11.9
2022-11-04T21:14:42.078Z,11.9
2022-11-04T21:19:42.049Z,11.9
2022-11-04T21:24:42.048Z,11.8
2022-11-04T21:29:42.189Z,11.9
2022-11-04T21:34:42.186Z,11.8
2022-11-04T21:39:42.172Z,11.8
2022-11-04T21:44:42.085Z,11.8
2022-11-04T21:49:42.085Z,11.8
2022-11-04T21:54:42.112Z,11.8
2022-11-04T21:59:42.096Z,11.8
2022-11-04T22:04:42.102Z,11.8
2022-11-04T22:09:42.104Z,11.8
2022-11-04T22:14:42.125Z,11.8
2022-11-04T22:19:42.112Z,11.8
2022-11-04T22:24:42.100Z,11.8
2022-11-04T22:29:42.108Z,11.8
2022-11-04T22:34:42.111Z,11.8
2022-11-04T22:39:42.090Z,11.8
2022-11-04T22:44:42.080Z,11.8
2022-11-04T22:49:42.084Z,11.8
2022-11-04T22:54:42.111Z,11.8
2022-11-04T22:59:42.095Z,11.8
2022-11-04T23:04:42.081Z,11.8
2022-11-04T23:09:42.080Z,11.8
2022-11-04T23:14:42.199Z,11.8
2022-11-04T23:19:42.086Z,11.8
2022-11-04T23:24:42.078Z,11.8
2022-11-04T23:29:42.109Z,11.7
2022-11-04T23:34:42.120Z,11.7
2022-11-04T23:39:42.093Z,11.7
2022-11-04T23:44:42.091Z,11.7
2022-11-04T23:49:42.095Z,11.7
2022-11-04T23:54:42.219Z,11.7
2022-11-04T23:59:42.089Z,11.7
